Portada
METAR-TAF:

METAR-TAF

Aeroports :

N'Djamena, Txad

latitud: 12-08N, longitud: 015-02E, altitud: 295 m

Observació

L'informe es va fer fa 57 minuts, a les 10:00 UTC
Vent 4 kt del Est/Sud-Est, variant entre Est/Sud-Est i Sud/Sud-Oest
Temperatura 31°C
Humitat 55%
Pressió 1012 hPa
Visibilitat: 8000 m

METAR: FTTJ 221000Z 11004KT 110V200 8000 NSC 31/21 Q1012 NOSIG

Hora: 11:57 (10:57 UTC)

Pronòstic

L'informe es va fer fa 5 hores i 57 minuts, a les 05:00 UTC
Pronòstic vàlid del 22 a les 06 UTC al 23 a les 12 UTC
Vent 8 kt del Sud-Est
Visibilitat: 8000 m
Probabilitat 30% :
Temporalment
l' 22 a les 15 UTC al 22 a les 21 UTC
tempesta

TAF: FTTJ 220500Z 2206/2312 14008KT 8000 NSC PROB30 TEMPO 2215/2221 TS

Observacions i pronòstics meteorològics de més de 4000 aeroports (METAR i TAF).

Les estacions disponibles són els punts grocs i vermells al mapa.

Posi el ratolí al punt desitjat per veure el nom de l'estació.

Feu clic per veure les observacions i els pronòstics meteorològics.

Per canviar el mapa: feu clic els botons verds amb una creu de color negre per apropar; al botó verd amb un guió per allunyar la imatge; o en les fletxes verdes per a mapes adjacents.


METAR-TAF: